Time;durP1;ratioP1;P1;durP2;ratioP2;P2;SDS_P1;SDS_P2;PMS_P1;PMS_P2;Temp;Humidity;BMP_temperature;BMP_pressure;BME280_temperature;BME280_humidity;BME280_pressure;Samples;Min_cycle;Max_cycle;Signal;HPM_P1;HPM_P2
2023/08/13 00:00:37;;;;;;;18.50;3.72;;;16.80;99.90;;;;;;5041967;28;20181;-76
2023/08/13 00:03:23;;;;;;;24.88;4.78;;;16.80;99.90;;;;;;5042645;28;20051;-77
2023/08/13 00:06:09;;;;;;;16.30;4.45;;;16.70;99.90;;;;;;5073652;28;20052;-76
2023/08/13 00:08:55;;;;;;;19.35;4.18;;;16.70;99.90;;;;;;5073027;28;20519;-76
2023/08/13 00:11:41;;;;;;;21.83;4.00;;;16.60;99.90;;;;;;5055438;28;20155;-76
2023/08/13 00:14:28;;;;;;;16.77;3.72;;;16.50;99.90;;;;;;5055989;28;20058;-77
2023/08/13 00:17:14;;;;;;;17.98;3.28;;;16.50;99.90;;;;;;5073693;28;20059;-77
2023/08/13 00:20:00;;;;;;;16.80;4.03;;;16.40;99.90;;;;;;5054970;28;20075;-77
2023/08/13 00:22:47;;;;;;;23.13;4.13;;;16.40;99.90;;;;;;5073122;28;20056;-77
2023/08/13 00:25:33;;;;;;;18.58;3.63;;;16.30;99.90;;;;;;5058502;28;20466;-77
2023/08/13 00:28:19;;;;;;;21.65;3.92;;;16.30;99.90;;;;;;5072966;28;20045;-78
2023/08/13 00:31:05;;;;;;;17.73;3.65;;;16.30;99.90;;;;;;5073501;28;20367;-78
2023/08/13 00:33:51;;;;;;;18.17;4.18;;;16.20;99.90;;;;;;5041880;28;20044;-77
2023/08/13 00:36:38;;;;;;;21.05;4.47;;;16.20;99.90;;;;;;5054579;28;20458;-77
2023/08/13 00:39:24;;;;;;;16.00;4.43;;;16.20;99.90;;;;;;5072356;28;20751;-77
2023/08/13 00:42:10;;;;;;;16.27;3.78;;;16.10;99.90;;;;;;5058161;28;20143;-77
2023/08/13 00:44:56;;;;;;;22.85;5.25;;;16.10;99.90;;;;;;5053698;28;20442;-77
2023/08/13 00:47:44;;;;;;;22.67;5.03;;;16.10;99.90;;;;;;5055089;28;20477;-77
2023/08/13 00:50:30;;;;;;;16.55;4.28;;;16.10;99.90;;;;;;5072195;28;20051;-78
2023/08/13 00:53:17;;;;;;;19.73;4.80;;;16.10;99.90;;;;;;5073061;28;20040;-77
2023/08/13 00:56:03;;;;;;;24.17;3.85;;;16.10;99.90;;;;;;5074438;28;20052;-77
2023/08/13 00:58:50;;;;;;;18.45;4.63;;;16.00;99.90;;;;;;5040741;28;20052;-77
2023/08/13 01:01:36;;;;;;;17.55;3.53;;;16.10;99.90;;;;;;5072882;28;20048;-76
2023/08/13 01:04:23;;;;;;;17.50;3.15;;;16.00;99.90;;;;;;5058127;28;20047;-75
2023/08/13 01:07:26;;;;;;;15.07;3.55;;;16.00;99.90;;;;;;5041920;28;20444;-75
2023/08/13 01:10:20;;;;;;;23.90;4.18;;;16.00;99.90;;;;;;5072502;28;20128;-75
2023/08/13 01:13:21;;;;;;;16.92;4.32;;;16.00;99.90;;;;;;5073553;28;20052;-76
2023/08/13 01:16:09;;;;;;;17.27;3.85;;;16.00;99.90;;;;;;5053858;28;20054;-76
2023/08/13 01:18:55;;;;;;;21.50;3.95;;;16.00;99.90;;;;;;5041032;28;20060;-76
2023/08/13 01:21:41;;;;;;;17.20;3.63;;;16.00;99.90;;;;;;5054891;28;20058;-77
2023/08/13 01:24:27;;;;;;;15.93;3.60;;;16.00;99.90;;;;;;5044697;28;20072;-76
2023/08/13 01:27:17;;;;;;;13.68;3.75;;;16.10;99.90;;;;;;5054384;28;20373;-76
2023/08/13 01:30:16;;;;;;;16.75;3.90;;;16.10;99.90;;;;;;5053914;28;20051;-76
2023/08/13 01:33:03;;;;;;;24.27;4.72;;;16.10;99.90;;;;;;5072238;28;20399;-76
2023/08/13 01:35:50;;;;;;;17.73;4.30;;;16.10;99.90;;;;;;5058605;28;20052;-76
2023/08/13 01:38:37;;;;;;;18.25;4.80;;;16.20;99.90;;;;;;5071737;28;20048;-76
2023/08/13 01:41:23;;;;;;;18.02;4.25;;;16.20;99.90;;;;;;5053919;28;20080;-77
2023/08/13 01:44:09;;;;;;;13.50;3.78;;;16.20;99.90;;;;;;5071419;28;20135;-76
2023/08/13 01:46:56;;;;;;;14.10;4.40;;;16.10;99.90;;;;;;5040272;28;20059;-76
2023/08/13 01:49:42;;;;;;;15.00;3.65;;;16.20;99.90;;;;;;5071802;28;20079;-76
2023/08/13 01:52:28;;;;;;;23.00;4.03;;;16.20;99.90;;;;;;5070940;28;20178;-76
2023/08/13 01:55:14;;;;;;;13.57;3.55;;;16.20;99.90;;;;;;5052529;28;20056;-76
2023/08/13 01:58:01;;;;;;;17.55;3.80;;;16.20;99.90;;;;;;5056320;28;20496;-76
2023/08/13 02:00:47;;;;;;;10.30;3.40;;;16.30;99.90;;;;;;5052889;28;20059;-76
2023/08/13 02:03:33;;;;;;;15.45;3.83;;;16.30;99.90;;;;;;5070874;28;20444;-76
2023/08/13 02:06:19;;;;;;;15.85;4.78;;;16.40;99.90;;;;;;5039654;28;20799;-76
2023/08/13 02:09:05;;;;;;;14.30;4.03;;;16.40;99.90;;;;;;5071287;28;20103;-76
2023/08/13 02:11:51;;;;;;;17.63;3.72;;;16.40;99.90;;;;;;5052910;28;20113;-76
2023/08/13 02:14:38;;;;;;;12.35;3.95;;;16.40;99.90;;;;;;5070521;28;20053;-77
2023/08/13 02:17:24;;;;;;;16.02;4.00;;;16.40;99.90;;;;;;5040225;28;20106;-77
2023/08/13 02:20:10;;;;;;;13.70;4.13;;;16.50;99.90;;;;;;5042383;28;20055;-77
2023/08/13 02:22:56;;;;;;;17.27;3.67;;;16.50;99.90;;;;;;5053189;28;20052;-77
2023/08/13 02:25:43;;;;;;;18.00;3.75;;;16.50;99.90;;;;;;5071222;28;20071;-78
2023/08/13 02:28:29;;;;;;;16.50;3.67;;;16.60;99.90;;;;;;5070820;28;20045;-78
2023/08/13 02:31:15;;;;;;;18.50;4.22;;;16.50;99.90;;;;;;5070779;28;20090;-77
2023/08/13 02:34:01;;;;;;;20.90;4.82;;;16.60;99.90;;;;;;5070788;28;20090;-78
2023/08/13 02:36:47;;;;;;;23.05;4.20;;;16.60;99.90;;;;;;5070397;28;20565;-77
2023/08/13 02:39:33;;;;;;;16.38;4.05;;;16.60;99.90;;;;;;5057896;28;20052;-78
2023/08/13 02:42:19;;;;;;;16.65;4.32;;;16.60;99.90;;;;;;5070422;28;20377;-76
2023/08/13 02:45:05;;;;;;;17.02;3.72;;;16.60;99.90;;;;;;5056691;28;20379;-77
2023/08/13 02:47:51;;;;;;;18.08;4.22;;;16.60;99.90;;;;;;5057868;28;20044;-77
2023/08/13 02:50:37;;;;;;;20.75;3.78;;;16.70;99.90;;;;;;5070820;28;20119;-77
2023/08/13 02:53:24;;;;;;;15.40;3.40;;;16.70;99.90;;;;;;5070649;28;20050;-77
2023/08/13 02:56:10;;;;;;;19.77;3.95;;;16.70;99.90;;;;;;5051873;28;20052;-77
2023/08/13 02:58:56;;;;;;;21.15;4.35;;;16.80;99.90;;;;;;5071250;28;20105;-77
2023/08/13 03:01:45;;;;;;;13.43;4.60;;;16.80;99.90;;;;;;5070271;28;20412;-77
2023/08/13 03:04:31;;;;;;;21.45;4.20;;;16.80;99.90;;;;;;5069958;28;20040;-77
2023/08/13 03:07:17;;;;;;;20.02;4.10;;;16.80;99.90;;;;;;5069220;28;20048;-77
2023/08/13 03:10:03;;;;;;;17.90;4.15;;;16.80;99.90;;;;;;5070335;28;20051;-77
2023/08/13 03:12:50;;;;;;;21.65;5.22;;;16.80;99.90;;;;;;5070301;28;20053;-77
2023/08/13 03:15:36;;;;;;;17.45;3.83;;;16.80;99.90;;;;;;5052775;28;20475;-77
2023/08/13 03:18:22;;;;;;;20.90;5.15;;;16.80;99.90;;;;;;5069617;28;20044;-77
2023/08/13 03:21:08;;;;;;;17.10;4.07;;;16.80;99.90;;;;;;5070511;28;20056;-77
2023/08/13 03:23:54;;;;;;;20.95;4.05;;;16.80;99.90;;;;;;5055561;28;20110;-77
2023/08/13 03:26:41;;;;;;;25.85;4.97;;;16.70;99.90;;;;;;5071744;28;20462;-77
2023/08/13 03:29:27;;;;;;;18.63;4.07;;;16.70;99.90;;;;;;5052486;28;20055;-78
2023/08/13 03:32:13;;;;;;;17.38;3.92;;;16.60;99.90;;;;;;5053181;28;20044;-77
2023/08/13 03:34:59;;;;;;;20.02;4.32;;;16.50;99.90;;;;;;5069551;28;20504;-77
2023/08/13 03:37:46;;;;;;;22.10;3.67;;;16.50;99.90;;;;;;5069811;28;20079;-77
2023/08/13 03:40:32;;;;;;;18.65;4.32;;;16.40;99.90;;;;;;5055177;28;20055;-77
2023/08/13 03:43:18;;;;;;;16.30;4.07;;;16.40;99.90;;;;;;5055086;28;20049;-76
2023/08/13 03:46:04;;;;;;;22.08;5.00;;;16.30;99.90;;;;;;5070132;28;20055;-77
2023/08/13 03:48:50;;;;;;;18.85;4.35;;;16.30;99.90;;;;;;5071562;28;20072;-78
2023/08/13 03:51:37;;;;;;;13.57;4.97;;;16.30;99.90;;;;;;5070404;28;20396;-76
2023/08/13 03:54:23;;;;;;;23.58;4.70;;;16.30;99.90;;;;;;5069152;28;20139;-77
2023/08/13 03:57:09;;;;;;;13.00;4.07;;;16.20;99.90;;;;;;5069526;28;20044;-77
2023/08/13 03:59:55;;;;;;;19.13;5.65;;;16.20;99.90;;;;;;5069376;28;20124;-77
2023/08/13 04:02:48;;;;;;;26.20;5.82;;;16.20;99.90;;;;;;5052479;28;20048;-77
2023/08/13 04:05:35;;;;;;;18.60;4.25;;;16.10;99.90;;;;;;5054975;28;20061;-74
2023/08/13 04:08:21;;;;;;;20.65;4.55;;;16.10;99.90;;;;;;5070332;28;20063;-75
2023/08/13 04:11:07;;;;;;;19.80;5.60;;;16.10;99.90;;;;;;5037720;28;20062;-76
2023/08/13 04:13:54;;;;;;;19.45;4.35;;;16.00;99.90;;;;;;5068832;28;20053;-76
2023/08/13 04:16:40;;;;;;;17.08;3.80;;;16.00;99.90;;;;;;5070389;28;20044;-77
2023/08/13 04:19:26;;;;;;;14.88;3.90;;;16.00;99.90;;;;;;5073404;28;20127;-76
2023/08/13 04:22:12;;;;;;;19.55;4.65;;;16.00;99.90;;;;;;5072709;28;20048;-76
2023/08/13 04:24:58;;;;;;;23.83;4.07;;;16.00;99.90;;;;;;5041733;28;20060;-75
2023/08/13 04:27:44;;;;;;;15.20;4.47;;;16.00;99.90;;;;;;5074617;28;20109;-76
2023/08/13 04:30:31;;;;;;;19.15;4.15;;;15.90;99.90;;;;;;5073442;28;20106;-76
2023/08/13 04:33:17;;;;;;;17.00;3.95;;;16.00;99.90;;;;;;5073422;28;20404;-76
2023/08/13 04:36:03;;;;;;;14.70;4.25;;;16.00;99.90;;;;;;5059521;28;20045;-76
2023/08/13 04:38:49;;;;;;;23.65;4.55;;;16.00;99.90;;;;;;5058900;28;20139;-76
2023/08/13 04:41:37;;;;;;;15.95;4.18;;;16.10;99.90;;;;;;5041760;28;20048;-76
2023/08/13 04:44:23;;;;;;;21.45;4.55;;;16.10;99.90;;;;;;5055162;28;20522;-76
2023/08/13 04:47:09;;;;;;;19.50;4.20;;;16.10;99.90;;;;;;5059691;28;20048;-76
2023/08/13 04:49:55;;;;;;;17.63;4.82;;;16.10;99.90;;;;;;5073624;28;20097;-76
2023/08/13 04:52:41;;;;;;;18.67;4.15;;;16.10;99.90;;;;;;5072677;28;20515;-76
2023/08/13 04:55:27;;;;;;;17.05;4.07;;;16.20;99.90;;;;;;5044277;28;20136;-75
2023/08/13 04:58:13;;;;;;;15.02;4.85;;;16.20;99.90;;;;;;5053770;28;20132;-76
2023/08/13 05:01:00;;;;;;;23.33;5.40;;;16.20;99.90;;;;;;5052796;28;20045;-76
2023/08/13 05:03:46;;;;;;;15.50;4.03;;;16.30;99.90;;;;;;5052252;28;20056;-75
2023/08/13 05:06:32;;;;;;;21.95;4.30;;;16.30;99.90;;;;;;5052595;28;20103;-75
2023/08/13 05:09:19;;;;;;;24.73;4.43;;;16.30;99.90;;;;;;5052519;28;20084;-77
2023/08/13 05:12:05;;;;;;;18.65;4.78;;;16.40;99.90;;;;;;5051761;28;20052;-76
2023/08/13 05:14:52;;;;;;;18.88;4.35;;;16.40;99.90;;;;;;5050392;28;20124;-76
2023/08/13 05:17:38;;;;;;;17.30;5.32;;;16.40;99.90;;;;;;5050806;28;20065;-76
2023/08/13 05:20:24;;;;;;;17.02;4.53;;;16.40;99.90;;;;;;5051046;28;20497;-76
2023/08/13 05:23:11;;;;;;;18.42;4.63;;;16.40;99.90;;;;;;5051213;28;20045;-77
2023/08/13 05:25:57;;;;;;;15.52;4.28;;;16.50;99.90;;;;;;5050388;28;20501;-77
2023/08/13 05:28:43;;;;;;;18.80;4.15;;;16.50;99.90;;;;;;5052258;28;20055;-76
2023/08/13 05:31:30;;;;;;;17.27;4.10;;;16.50;99.90;;;;;;5052233;28;20049;-77
2023/08/13 05:34:16;;;;;;;20.90;5.05;;;16.60;99.90;;;;;;5037405;28;20045;-76
2023/08/13 05:37:02;;;;;;;23.67;4.57;;;16.60;99.90;;;;;;5051391;28;20512;-78
2023/08/13 05:39:48;;;;;;;20.52;4.80;;;16.70;99.90;;;;;;5050887;28;20068;-78
2023/08/13 05:42:35;;;;;;;17.35;4.30;;;16.70;99.90;;;;;;5050788;28;20476;-75
2023/08/13 05:45:21;;;;;;;18.88;4.43;;;16.80;99.90;;;;;;5051954;28;20116;-76
2023/08/13 05:48:07;;;;;;;15.43;4.38;;;16.80;99.90;;;;;;5050544;28;20057;-76
2023/08/13 05:50:53;;;;;;;17.35;4.78;;;16.80;99.90;;;;;;5051649;28;20053;-76
2023/08/13 05:53:39;;;;;;;22.65;4.57;;;16.90;99.90;;;;;;5037361;28;20041;-76
2023/08/13 05:56:26;;;;;;;20.10;4.13;;;16.90;99.90;;;;;;5071178;28;20118;-76
2023/08/13 05:59:12;;;;;;;17.80;4.47;;;17.00;99.90;;;;;;5040514;28;20864;-76
2023/08/13 06:01:58;;;;;;;20.40;4.72;;;17.10;99.90;;;;;;5053470;28;20092;-76
2023/08/13 06:04:44;;;;;;;18.38;5.57;;;17.10;99.90;;;;;;5056646;28;20041;-76
2023/08/13 06:07:30;;;;;;;16.90;5.15;;;17.20;99.90;;;;;;5053562;28;20654;-77
2023/08/13 06:10:17;;;;;;;18.50;4.68;;;17.40;99.90;;;;;;5071354;28;20102;-76
2023/08/13 06:13:03;;;;;;;18.40;4.35;;;17.50;99.90;;;;;;5070691;28;20046;-76
2023/08/13 06:15:49;;;;;;;14.75;4.45;;;17.60;99.90;;;;;;5052968;28;20095;-76
2023/08/13 06:18:35;;;;;;;18.75;4.97;;;17.70;99.90;;;;;;5052869;28;20463;-76
2023/08/13 06:21:21;;;;;;;16.17;4.03;;;17.80;99.90;;;;;;5039652;28;20051;-76
2023/08/13 06:24:08;;;;;;;19.25;4.28;;;18.00;99.90;;;;;;5070720;28;20218;-76
2023/08/13 06:26:54;;;;;;;15.82;3.72;;;18.30;99.90;;;;;;5071030;28;20053;-76
2023/08/13 06:29:40;;;;;;;18.17;3.88;;;18.50;99.90;;;;;;5071174;28;20077;-76
2023/08/13 06:32:26;;;;;;;13.23;3.33;;;18.70;99.90;;;;;;5053105;28;20481;-76
2023/08/13 06:35:15;;;;;;;16.15;3.75;;;18.80;99.90;;;;;;5071291;28;20399;-77
2023/08/13 06:38:01;;;;;;;17.55;3.53;;;18.90;99.90;;;;;;5071386;28;20511;-77
2023/08/13 06:40:47;;;;;;;16.50;4.20;;;19.00;99.90;;;;;;5070170;28;20048;-76
2023/08/13 06:43:34;;;;;;;26.67;4.07;;;19.10;99.90;;;;;;5055992;28;20045;-77
2023/08/13 06:46:20;;;;;;;16.50;3.25;;;19.20;99.90;;;;;;5053779;28;20562;-77
2023/08/13 06:49:06;;;;;;;16.65;4.00;;;19.20;99.90;;;;;;5055602;28;20040;-78
2023/08/13 06:51:52;;;;;;;17.05;3.60;;;19.30;99.90;;;;;;5053686;28;20060;-77
2023/08/13 06:54:39;;;;;;;16.25;4.20;;;19.30;99.90;;;;;;5069519;28;20458;-78
2023/08/13 06:57:25;;;;;;;17.63;3.55;;;19.20;99.90;;;;;;5055866;28;20048;-78
2023/08/13 07:00:12;;;;;;;17.52;3.42;;;19.20;99.90;;;;;;5069916;28;20056;-77
2023/08/13 07:02:58;;;;;;;14.70;4.70;;;19.10;99.90;;;;;;5052844;28;20063;-78
2023/08/13 07:05:45;;;;;;;12.93;2.92;;;19.10;99.90;;;;;;5071048;28;20467;-76
2023/08/13 07:08:31;;;;;;;13.63;3.97;;;19.00;99.90;;;;;;5070007;28;20512;-78
2023/08/13 07:11:18;;;;;;;17.77;4.30;;;19.10;99.90;;;;;;5055574;28;20056;-77
2023/08/13 07:14:04;;;;;;;14.65;4.40;;;19.00;99.90;;;;;;5052179;28;20342;-78
2023/08/13 07:16:50;;;;;;;15.48;3.65;;;19.20;99.90;;;;;;5038174;28;20554;-78
2023/08/13 07:19:37;;;;;;;22.48;4.03;;;19.20;99.90;;;;;;5069194;28;20064;-76
2023/08/13 07:22:23;;;;;;;15.40;4.18;;;19.20;99.90;;;;;;5069266;28;20127;-76
2023/08/13 07:25:13;;;;;;;13.60;3.60;;;19.30;99.90;;;;;;5069284;28;20044;-77
2023/08/13 07:28:00;;;;;;;16.70;3.85;;;19.40;99.90;;;;;;5070400;28;20040;-77
2023/08/13 07:30:47;;;;;;;17.20;3.65;;;19.50;99.90;;;;;;5069949;28;20460;-76
2023/08/13 07:33:34;;;;;;;15.45;3.55;;;19.60;99.90;;;;;;5070158;28;20048;-76
2023/08/13 07:36:20;;;;;;;14.18;3.10;;;19.90;99.90;;;;;;5070006;28;20164;-77
2023/08/13 07:39:09;;;;;;;19.48;3.30;;;20.00;99.90;;;;;;5069473;28;20044;-77
2023/08/13 07:41:55;;;;;;;11.90;3.05;;;20.00;99.90;;;;;;5042096;28;20080;-77
2023/08/13 07:44:41;;;;;;;11.93;3.15;;;20.20;99.90;;;;;;5052202;28;20052;-77
2023/08/13 07:47:27;;;;;;;12.27;4.07;;;20.50;99.90;;;;;;5070045;28;20135;-77
2023/08/13 07:50:13;;;;;;;14.82;3.58;;;20.70;99.90;;;;;;5069345;28;20056;-77
2023/08/13 07:52:59;;;;;;;12.50;3.78;;;20.80;99.90;;;;;;5056495;28;20063;-77
2023/08/13 07:55:46;;;;;;;14.68;4.20;;;20.70;99.90;;;;;;5073194;28;20056;-77
2023/08/13 07:58:33;;;;;;;17.60;3.38;;;20.90;99.90;;;;;;5073261;28;20136;-77
2023/08/13 08:01:19;;;;;;;18.90;3.95;;;20.90;99.90;;;;;;5073209;28;20052;-77
2023/08/13 08:04:05;;;;;;;10.85;3.47;;;21.00;99.90;;;;;;5072789;28;20523;-76
2023/08/13 08:06:51;;;;;;;13.82;4.07;;;21.10;99.90;;;;;;5072987;28;20052;-76
2023/08/13 08:09:38;;;;;;;13.00;3.60;;;21.40;99.90;;;;;;5073082;28;20408;-76
2023/08/13 08:12:24;;;;;;;14.88;3.55;;;21.30;99.90;;;;;;5073126;28;20178;-77
2023/08/13 08:15:10;;;;;;;16.48;3.58;;;21.40;99.90;;;;;;5056005;28;20148;-76
2023/08/13 08:17:56;;;;;;;12.38;3.60;;;21.50;99.90;;;;;;5072781;28;20051;-77
2023/08/13 08:20:43;;;;;;;10.93;3.38;;;21.70;99.90;;;;;;5073717;28;20056;-74
2023/08/13 08:23:29;;;;;;;12.90;3.97;;;21.50;99.90;;;;;;5073683;28;20044;-75
2023/08/13 08:26:15;;;;;;;10.55;2.95;;;21.30;99.90;;;;;;5073052;28;20044;-75
2023/08/13 08:29:02;;;;;;;11.90;2.97;;;21.30;99.90;;;;;;5073244;28;20106;-77
2023/08/13 08:31:48;;;;;;;13.18;3.95;;;21.30;99.90;;;;;;5073223;28;20404;-76
2023/08/13 08:34:34;;;;;;;10.98;2.72;;;21.70;99.90;;;;;;5072431;28;20045;-76
2023/08/13 08:37:20;;;;;;;12.85;2.88;;;21.90;99.90;;;;;;5055908;28;20052;-76
2023/08/13 08:40:07;;;;;;;11.45;2.15;;;22.00;99.90;;;;;;5073054;28;20134;-76
2023/08/13 08:42:53;;;;;;;10.25;2.17;;;22.00;99.90;;;;;;5041560;28;20048;-76
2023/08/13 08:45:40;;;;;;;10.82;2.38;;;22.00;99.90;;;;;;5072140;28;20416;-75
2023/08/13 08:48:29;;;;;;;7.68;1.98;;;21.90;99.90;;;;;;5074122;28;20037;-76
2023/08/13 08:51:16;;;;;;;17.42;3.30;;;22.00;99.90;;;;;;5054459;28;20060;-77
2023/08/13 08:54:04;;;;;;;12.65;2.40;;;22.00;99.90;;;;;;5057607;28;20131;-76
2023/08/13 08:56:50;;;;;;;10.07;2.28;;;22.20;99.90;;;;;;5072828;28;20066;-76
2023/08/13 08:59:37;;;;;;;10.90;2.80;;;22.40;99.90;;;;;;5054615;28;20152;-77
2023/08/13 09:02:23;;;;;;;6.90;1.85;;;22.30;99.90;;;;;;5054535;28;20056;-76
2023/08/13 09:05:09;;;;;;;9.27;1.98;;;22.10;99.90;;;;;;5071365;28;20055;-75
2023/08/13 09:07:55;;;;;;;9.52;2.42;;;22.30;99.90;;;;;;5071577;28;20052;-76
2023/08/13 09:10:42;;;;;;;7.03;1.90;;;22.60;99.90;;;;;;5073003;28;20045;-76
2023/08/13 09:13:28;;;;;;;7.78;2.05;;;22.80;99.90;;;;;;5072031;28;20101;-76
2023/08/13 09:16:15;;;;;;;9.70;2.25;;;23.00;99.90;;;;;;5072521;28;20047;-76
2023/08/13 09:19:01;;;;;;;10.07;2.03;;;22.90;99.90;;;;;;5053954;28;20519;-76
2023/08/13 09:21:55;;;;;;;7.43;1.95;;;22.60;99.90;;;;;;5072270;28;20158;-75
2023/08/13 09:24:42;;;;;;;7.45;2.42;;;22.30;99.90;;;;;;5072239;28;20049;-76
2023/08/13 09:27:28;;;;;;;11.55;2.33;;;22.10;99.90;;;;;;5072728;28;20056;-76
2023/08/13 09:30:28;;;;;;;10.82;2.20;;;22.10;99.90;;;;;;5053283;28;20045;-76
2023/08/13 09:33:15;;;;;;;17.02;2.78;;;22.00;99.90;;;;;;5071916;28;20152;-76
2023/08/13 09:36:01;;;;;;;9.40;2.92;;;22.20;99.90;;;;;;5071342;28;20056;-77
2023/08/13 09:38:47;;;;;;;12.77;2.63;;;22.30;99.90;;;;;;5054105;28;20048;-77
2023/08/13 09:41:34;;;;;;;7.55;2.67;;;22.70;99.90;;;;;;5071950;28;20135;-77
2023/08/13 09:44:24;;;;;;;10.77;2.65;;;23.10;99.90;;;;;;5072665;28;20048;-78
2023/08/13 09:47:13;;;;;;;13.70;2.63;;;23.30;99.90;;;;;;5054073;28;20135;-77
2023/08/13 09:50:01;;;;;;;13.02;2.45;;;23.10;99.90;;;;;;5056669;28;20060;-78
2023/08/13 09:52:47;;;;;;;8.48;1.75;;;23.10;99.90;;;;;;5071092;28;20048;-77
2023/08/13 09:55:39;;;;;;;9.35;1.98;;;23.10;99.90;;;;;;5055395;28;20358;-76
2023/08/13 09:58:25;;;;;;;9.40;2.35;;;23.20;99.90;;;;;;5072021;28;20139;-76
2023/08/13 10:01:13;;;;;;;10.10;1.92;;;23.50;99.90;;;;;;5071449;28;20053;-77
2023/08/13 10:04:00;;;;;;;5.97;1.48;;;23.60;99.90;;;;;;5071328;28;20044;-77
2023/08/13 10:06:49;;;;;;;6.50;1.30;;;24.00;99.90;;;;;;5071429;28;20389;-77
2023/08/13 10:09:37;;;;;;;7.88;1.88;;;23.90;99.90;;;;;;5071422;28;20159;-77
2023/08/13 10:12:24;;;;;;;8.90;2.05;;;23.60;99.90;;;;;;5070899;28;20044;-74
2023/08/13 10:15:11;;;;;;;7.25;1.50;;;23.40;99.90;;;;;;5053451;28;20094;-77
2023/08/13 10:17:58;;;;;;;10.60;2.13;;;23.70;99.90;;;;;;5056865;28;20052;-76
2023/08/13 10:20:45;;;;;;;11.63;2.28;;;23.90;99.90;;;;;;5071295;28;20067;-76
2023/08/13 10:23:34;;;;;;;7.57;2.05;;;24.00;99.90;;;;;;5070469;28;20136;-76
2023/08/13 10:26:22;;;;;;;8.07;1.95;;;23.80;99.90;;;;;;5071021;28;20052;-76
2023/08/13 10:29:21;;;;;;;7.90;1.70;;;23.70;99.90;;;;;;5071117;28;20052;-76
2023/08/13 10:32:15;;;;;;;9.98;1.83;;;23.50;99.90;;;;;;5071568;28;20102;-77
2023/08/13 10:35:22;;;;;;;8.95;2.40;;;23.30;99.90;;;;;;5070295;28;20048;-77
2023/08/13 10:38:09;;;;;;;11.15;2.22;;;23.40;99.90;;;;;;5070579;28;20048;-77
2023/08/13 10:40:59;;;;;;;10.40;2.35;;;23.30;99.90;;;;;;5071366;28;20037;-76
2023/08/13 10:43:45;;;;;;;8.18;2.08;;;23.40;99.90;;;;;;5071861;28;20044;-76
2023/08/13 10:46:40;;;;;;;10.63;2.20;;;23.10;99.90;;;;;;5070813;28;20048;-77
2023/08/13 10:49:27;;;;;;;7.22;1.42;;;23.10;99.90;;;;;;5070060;28;20067;-77
2023/08/13 10:52:14;;;;;;;9.30;2.10;;;23.00;99.90;;;;;;5070657;28;20377;-77
2023/08/13 10:55:01;;;;;;;8.43;1.60;;;22.90;99.90;;;;;;5069498;28;20110;-77
2023/08/13 10:57:54;;;;;;;8.48;1.88;;;22.90;99.90;;;;;;5071583;28;20389;-77
2023/08/13 11:00:42;;;;;;;9.85;2.00;;;22.80;99.90;;;;;;5051674;28;20052;-76
2023/08/13 11:03:30;;;;;;;8.73;1.85;;;22.90;99.90;;;;;;5070688;28;20044;-77
2023/08/13 11:06:19;;;;;;;9.57;1.88;;;22.70;99.90;;;;;;5039111;28;20577;-77
2023/08/13 11:09:07;;;;;;;10.35;1.88;;;22.70;99.90;;;;;;5071162;28;20056;-76
2023/08/13 11:11:55;;;;;;;10.55;2.33;;;22.80;99.90;;;;;;5055284;28;20044;-77
2023/08/13 11:14:41;;;;;;;8.70;1.92;;;22.50;99.90;;;;;;5070482;28;20515;-77
2023/08/13 11:17:28;;;;;;;8.27;1.92;;;22.30;99.90;;;;;;5070161;28;20413;-76
2023/08/13 11:20:18;;;;;;;8.20;2.10;;;22.30;99.90;;;;;;5051991;28;20059;-77
2023/08/13 11:23:05;;;;;;;7.75;2.30;;;22.60;99.90;;;;;;5069832;28;20052;-77
2023/08/13 11:25:52;;;;;;;9.82;2.58;;;23.00;99.90;;;;;;5070432;28;20048;-77
2023/08/13 11:28:41;;;;;;;9.90;1.98;;;23.00;99.90;;;;;;5069372;28;20053;-76
2023/08/13 11:31:27;;;;;;;7.18;1.83;;;23.00;99.90;;;;;;5069871;28;20091;-76
2023/08/13 11:34:15;;;;;;;6.72;2.28;;;23.20;99.90;;;;;;5069125;28;20048;-77
2023/08/13 11:37:03;;;;;;;9.05;2.25;;;23.00;99.90;;;;;;5069502;28;20412;-73
2023/08/13 11:39:49;;;;;;;14.05;2.50;;;22.90;99.90;;;;;;5069463;28;20114;-75
2023/08/13 11:42:35;;;;;;;12.50;2.63;;;22.80;99.90;;;;;;5051594;28;20044;-78
2023/08/13 11:45:23;;;;;;;11.77;2.78;;;22.30;99.90;;;;;;5069660;28;20106;-76
2023/08/13 11:48:14;;;;;;;7.43;2.05;;;22.10;99.90;;;;;;5055018;28;20472;-74
2023/08/13 11:51:11;;;;;;;10.48;2.00;;;22.10;99.90;;;;;;5069537;28;20106;-78
2023/08/13 11:53:57;;;;;;;8.30;2.30;;;21.90;99.90;;;;;;5068798;28;20157;-74
2023/08/13 11:56:44;;;;;;;8.73;2.55;;;21.90;99.90;;;;;;5069541;28;20080;-73
2023/08/13 11:59:30;;;;;;;11.02;2.00;;;21.70;99.90;;;;;;5069976;28;20377;-75
2023/08/13 12:02:16;;;;;;;7.38;2.00;;;21.60;99.90;;;;;;5070662;28;20488;-74
2023/08/13 12:05:03;;;;;;;7.20;2.42;;;21.60;99.90;;;;;;5051218;28;20061;-74
2023/08/13 12:07:52;;;;;;;5.18;1.33;;;21.80;99.90;;;;;;5054837;28;20048;-73
2023/08/13 12:10:39;;;;;;;7.63;1.90;;;21.90;99.90;;;;;;5069713;28;20528;-73
2023/08/13 12:13:26;;;;;;;7.57;1.75;;;22.10;99.90;;;;;;5069875;28;20045;-77
2023/08/13 12:16:12;;;;;;;8.10;1.67;;;22.40;99.90;;;;;;5069744;28;20041;-73
2023/08/13 12:18:58;;;;;;;7.57;1.92;;;22.60;99.90;;;;;;5070307;28;20487;-77
2023/08/13 12:21:44;;;;;;;7.75;2.25;;;22.60;99.90;;;;;;5069418;28;20620;-77
2023/08/13 12:24:30;;;;;;;11.02;2.85;;;23.10;99.90;;;;;;5040893;28;20503;-76
2023/08/13 12:27:17;;;;;;;7.18;2.40;;;23.90;99.90;;;;;;5051724;28;20052;-77
2023/08/13 12:30:04;;;;;;;6.78;2.20;;;24.40;99.90;;;;;;5069620;28;20089;-77
2023/08/13 12:32:50;;;;;;;13.23;2.40;;;24.70;99.90;;;;;;5069448;28;20064;-79
2023/08/13 12:35:36;;;;;;;9.85;2.95;;;25.00;99.90;;;;;;5038191;28;20060;-76
2023/08/13 12:38:22;;;;;;;9.73;2.22;;;25.50;99.90;;;;;;5051900;28;20063;-84
2023/08/13 12:41:09;;;;;;;10.27;2.72;;;25.10;99.90;;;;;;5053992;28;20095;-77
2023/08/13 12:43:55;;;;;;;7.35;2.08;;;24.70;99.90;;;;;;5072414;28;20094;-78
2023/08/13 12:46:41;;;;;;;5.70;1.60;;;24.30;99.90;;;;;;5073298;28;20056;-78
2023/08/13 12:49:27;;;;;;;5.95;2.30;;;24.20;99.90;;;;;;5072888;28;20048;-78
2023/08/13 12:52:14;;;;;;;15.30;2.85;;;24.10;99.90;;;;;;5072723;28;20519;-79
2023/08/13 12:55:00;;;;;;;8.50;2.28;;;24.00;99.90;;;;;;5072473;28;20055;-79
2023/08/13 12:57:46;;;;;;;8.32;2.05;;;24.20;99.90;;;;;;5041159;28;20133;-78
2023/08/13 13:00:32;;;;;;;7.30;2.38;;;23.80;99.90;;;;;;5072952;28;20500;-79
2023/08/13 13:03:18;;;;;;;9.88;2.63;;;23.70;99.90;;;;;;5072775;28;20063;-77
2023/08/13 13:06:04;;;;;;;5.95;1.70;;;23.40;99.90;;;;;;5072094;28;20080;-75
2023/08/13 13:08:50;;;;;;;7.97;1.58;;;23.30;99.90;;;;;;5058158;28;20114;-76
2023/08/13 13:11:37;;;;;;;6.10;1.80;;;23.40;99.90;;;;;;5054101;28;20068;-76
2023/08/13 13:14:23;;;;;;;10.10;2.00;;;23.10;99.90;;;;;;5053671;28;20052;-78
2023/08/13 13:17:09;;;;;;;7.85;1.92;;;23.10;99.90;;;;;;5057433;28;20151;-79
2023/08/13 13:19:55;;;;;;;6.47;1.83;;;23.20;99.90;;;;;;5072140;28;20057;-76
2023/08/13 13:22:42;;;;;;;4.85;1.50;;;23.10;99.90;;;;;;5072556;28;20044;-77
2023/08/13 13:25:28;;;;;;;5.07;1.42;;;23.00;99.90;;;;;;5053673;28;20150;-77
2023/08/13 13:28:15;;;;;;;5.97;1.63;;;22.80;99.90;;;;;;5071039;28;20060;-78
2023/08/13 13:31:01;;;;;;;5.55;1.85;;;22.90;99.90;;;;;;5057140;28;20052;-77
2023/08/13 13:33:47;;;;;;;8.23;2.47;;;22.90;99.90;;;;;;5072229;28;20048;-78
2023/08/13 13:36:34;;;;;;;7.07;1.90;;;23.00;99.90;;;;;;5057838;28;20040;-77
2023/08/13 13:39:20;;;;;;;5.20;1.30;;;23.10;99.90;;;;;;5053321;28;20052;-79
2023/08/13 13:42:06;;;;;;;5.15;1.60;;;23.30;99.90;;;;;;5056864;28;20044;-78
2023/08/13 13:44:52;;;;;;;7.47;2.28;;;23.50;99.90;;;;;;5053575;28;20510;-77
2023/08/13 13:47:38;;;;;;;5.30;1.30;;;23.50;99.90;;;;;;5054773;28;20142;-77
2023/08/13 13:50:25;;;;;;;4.82;1.20;;;23.70;99.90;;;;;;5073065;28;20057;-78
2023/08/13 13:53:11;;;;;;;7.43;1.75;;;23.70;99.90;;;;;;5071061;28;20419;-77
2023/08/13 13:55:57;;;;;;;5.05;1.02;;;23.70;99.90;;;;;;5053368;28;20068;-78
2023/08/13 13:58:43;;;;;;;4.55;1.00;;;23.70;99.90;;;;;;5039572;28;20052;-78
2023/08/13 14:01:29;;;;;;;5.85;1.00;;;23.80;99.90;;;;;;5070835;28;20048;-79
2023/08/13 14:04:16;;;;;;;5.38;1.10;;;24.10;99.90;;;;;;5053859;28;20084;-78
2023/08/13 14:07:02;;;;;;;4.20;1.05;;;24.30;99.90;;;;;;5040225;28;20415;-77
2023/08/13 14:09:48;;;;;;;4.78;0.85;;;25.10;99.60;;;;;;5070244;28;20048;-77
2023/08/13 14:12:34;;;;;;;2.92;0.90;;;25.20;98.10;;;;;;5039291;28;20093;-77
2023/08/13 14:15:21;;;;;;;1.70;0.70;;;25.50;97.70;;;;;;5071616;28;20049;-77
2023/08/13 14:18:07;;;;;;;3.65;0.85;;;25.50;97.70;;;;;;5057978;28;20091;-76
2023/08/13 14:20:53;;;;;;;4.25;1.08;;;25.40;97.50;;;;;;5057491;28;20136;-75